Time;durP1;ratioP1;P1;durP2;ratioP2;P2;SDS_P1;SDS_P2;PMS_P1;PMS_P2;Temp;Humidity;BMP_temperature;BMP_pressure;BME280_temperature;BME280_humidity;BME280_pressure;Samples;Min_cycle;Max_cycle;Signal;HPM_P1;HPM_P2
2022/01/21 00:00:25;;;;;;;26.08;10.43;;;;;;;-1.88;100.00;103514.16;5233394;28;20024;-65
2022/01/21 00:02:55;;;;;;;11.30;8.43;;;;;;;-1.89;100.00;103512.47;5232991;28;20040;-65
2022/01/21 00:05:26;;;;;;;18.13;11.55;;;;;;;-2.09;100.00;103489.22;5232519;28;20033;-65
2022/01/21 00:07:56;;;;;;;10.77;8.70;;;;;;;-1.94;100.00;103511.09;5232983;28;20063;-65
2022/01/21 00:10:27;;;;;;;10.02;8.90;;;;;;;-1.82;100.00;103508.44;5232563;28;20033;-65
2022/01/21 00:12:58;;;;;;;17.80;9.38;;;;;;;-1.79;100.00;103504.72;5232205;28;20070;-64
2022/01/21 00:15:28;;;;;;;11.70;10.30;;;;;;;-1.59;100.00;103517.38;5233169;28;20377;-64
2022/01/21 00:17:59;;;;;;;8.48;7.78;;;;;;;-1.53;100.00;103506.31;5232644;28;20062;-65
2022/01/21 00:31:45;;;;;;;7.97;6.68;;;;;;;-1.79;100.00;103521.47;5250343;28;20566;-65
2022/01/21 00:34:16;;;;;;;19.98;7.78;;;;;;;-1.85;100.00;103516.59;5249693;28;20038;-65
2022/01/21 00:36:47;;;;;;;7.32;6.65;;;;;;;-1.76;100.00;103520.41;5232269;28;20069;-64
2022/01/21 00:39:22;;;;;;;18.98;7.95;;;;;;;-1.79;100.00;103524.09;5232003;28;20108;-65
2022/01/21 00:44:29;;;;;;;8.52;6.20;;;;;;;-1.70;100.00;103502.22;5249030;28;20545;-64
2022/01/21 00:47:00;;;;;;;12.00;6.95;;;;;;;-1.58;100.00;103534.09;5231425;28;20036;-65
2022/01/21 00:49:30;;;;;;;11.23;6.88;;;;;;;-1.57;100.00;103528.69;5231400;28;20480;-65
2022/01/21 00:52:01;;;;;;;8.40;6.60;;;;;;;-1.54;100.00;103523.19;5231089;28;20056;-64
2022/01/21 00:54:32;;;;;;;7.40;6.82;;;;;;;-1.60;100.00;103507.72;5230849;28;20032;-64
2022/01/21 00:57:02;;;;;;;7.15;6.38;;;;;;;-1.61;100.00;103513.13;5231428;28;20045;-64
2022/01/21 00:59:33;;;;;;;7.60;5.47;;;;;;;-1.57;100.00;103518.09;5231070;28;20369;-65
2022/01/21 01:02:04;;;;;;;9.05;7.15;;;;;;;-1.53;100.00;103519.56;5231133;28;20045;-65
2022/01/21 01:04:34;;;;;;;7.78;7.07;;;;;;;-1.56;100.00;103524.25;5230784;28;20070;-64
2022/01/21 01:07:05;;;;;;;10.30;7.03;;;;;;;-1.75;100.00;103506.19;5231073;28;20466;-65
2022/01/21 01:09:36;;;;;;;9.02;8.05;;;;;;;-1.68;100.00;103525.13;5230492;28;20036;-67
2022/01/21 01:12:20;;;;;;;21.38;9.73;;;;;;;-1.77;100.00;103516.06;5230362;28;20150;-63
2022/01/21 01:20:28;;;;;;;8.05;7.40;;;;;;;-1.63;100.00;103525.63;5248715;28;20063;-64
2022/01/21 01:23:07;;;;;;;10.25;8.25;;;;;;;-1.45;100.00;103526.97;5230891;28;20056;-64
2022/01/21 01:28:27;;;;;;;13.35;7.95;;;;;;;-1.40;100.00;103515.06;5248531;28;20137;-68
2022/01/21 01:30:57;;;;;;;8.55;7.78;;;;;;;-1.32;100.00;103522.44;5230086;28;20024;-63
2022/01/21 01:33:35;;;;;;;17.90;6.80;;;;;;;-1.36;100.00;103513.88;5230499;28;20070;-64
2022/01/21 01:36:08;;;;;;;10.35;7.97;;;;;;;-1.40;100.00;103517.72;5248511;28;20145;-64
2022/01/21 01:41:14;;;;;;;11.20;6.43;;;;;;;-1.47;100.00;103511.19;5248488;28;20028;-64
2022/01/21 01:49:28;;;;;;;10.13;5.97;;;;;;;-1.56;100.00;103519.78;5246483;28;20054;-63
2022/01/21 01:51:59;;;;;;;11.35;6.07;;;;;;;-1.56;100.00;103508.34;5228837;28;20128;-64
2022/01/21 01:54:32;;;;;;;6.88;6.20;;;;;;;-1.56;100.00;103506.53;5228794;28;20075;-64
2022/01/21 01:57:03;;;;;;;6.63;6.18;;;;;;;-1.70;100.00;103496.94;5229124;28;20028;-64
2022/01/21 01:59:34;;;;;;;11.45;7.50;;;;;;;-1.84;100.00;103475.06;5229190;28;20070;-63
2022/01/21 02:02:11;;;;;;;7.93;7.18;;;;;;;-1.73;100.00;103496.31;5228941;28;20032;-64
2022/01/21 02:04:43;;;;;;;9.85;5.65;;;;;;;-1.84;100.00;103485.66;5228887;28;20415;-63
2022/01/21 02:07:14;;;;;;;9.38;6.10;;;;;;;-1.74;100.00;103492.00;5228974;28;20440;-64
2022/01/21 02:09:45;;;;;;;12.50;7.15;;;;;;;-1.71;100.00;103483.81;5229093;28;20123;-64
2022/01/21 02:12:15;;;;;;;12.00;6.18;;;;;;;-1.71;100.00;103478.50;5229195;28;20064;-66
2022/01/21 02:14:52;;;;;;;5.60;5.07;;;;;;;-1.63;100.00;103493.84;5228601;28;20033;-63
2022/01/21 02:23:02;;;;;;;6.10;5.65;;;;;;;-1.77;100.00;103501.00;5251050;28;20068;-64
2022/01/21 02:25:32;;;;;;;8.20;6.72;;;;;;;-1.78;100.00;103495.81;5250437;28;20060;-63
2022/01/21 02:28:03;;;;;;;6.32;4.53;;;;;;;-1.64;100.00;103500.09;5232565;28;20495;-64
2022/01/21 02:30:33;;;;;;;6.75;6.05;;;;;;;-1.65;100.00;103495.75;5232118;28;20058;-65
2022/01/21 02:33:04;;;;;;;15.57;6.32;;;;;;;-1.63;100.00;103493.84;5232722;28;20040;-64
2022/01/21 02:35:34;;;;;;;14.13;8.10;;;;;;;-1.54;100.00;103504.63;5232887;28;20177;-64
2022/01/21 02:38:05;;;;;;;6.45;5.85;;;;;;;-1.53;100.00;103508.13;5233305;28;20032;-64
2022/01/21 02:40:35;;;;;;;10.60;6.35;;;;;;;-1.59;100.00;103496.16;5233370;28;20065;-62
2022/01/21 02:43:06;;;;;;;11.70;7.78;;;;;;;-1.57;100.00;103502.22;5233154;28;20028;-64
2022/01/21 02:45:39;;;;;;;6.95;5.63;;;;;;;-1.59;100.00;103501.47;5232842;28;20040;-64
2022/01/21 02:48:10;;;;;;;7.82;6.22;;;;;;;-1.65;100.00;103514.31;5233161;28;20578;-63
2022/01/21 02:50:41;;;;;;;12.95;6.13;;;;;;;-1.70;100.00;103517.28;5232801;28;20078;-64
2022/01/21 02:53:25;;;;;;;6.32;4.68;;;;;;;-1.77;100.00;103511.59;5233113;28;20091;-64
2022/01/21 02:55:55;;;;;;;12.38;6.90;;;;;;;-2.08;100.00;103482.97;5232839;28;20569;-64
2022/01/21 02:58:26;;;;;;;6.10;5.60;;;;;;;-1.92;100.00;103527.72;5250881;28;20058;-65
2022/01/21 03:00:56;;;;;;;6.78;5.90;;;;;;;-1.96;100.00;103523.59;5232414;28;20032;-63
2022/01/21 03:03:27;;;;;;;14.77;6.57;;;;;;;-1.97;100.00;103521.91;5232336;28;20028;-64
2022/01/21 03:05:57;;;;;;;9.18;6.90;;;;;;;-1.85;100.00;103513.09;5232720;28;20032;-64
2022/01/21 03:08:29;;;;;;;5.50;4.93;;;;;;;-1.74;100.00;103521.13;5232059;28;20042;-65
2022/01/21 03:10:59;;;;;;;7.40;5.97;;;;;;;-1.65;100.00;103522.25;5231698;28;20039;-65
2022/01/21 03:13:30;;;;;;;13.35;5.80;;;;;;;-1.61;100.00;103510.47;5231208;28;20403;-65
2022/01/21 03:16:00;;;;;;;10.52;5.13;;;;;;;-1.65;100.00;103522.25;5231428;28;20032;-67
2022/01/21 03:18:31;;;;;;;11.35;5.70;;;;;;;-1.76;100.00;103531.84;5231710;28;20059;-64
2022/01/21 03:21:01;;;;;;;17.70;6.93;;;;;;;-1.87;100.00;103526.44;5231368;28;20024;-65
2022/01/21 03:23:32;;;;;;;9.18;5.75;;;;;;;-1.93;100.00;103526.88;5231327;28;20491;-64
2022/01/21 03:26:03;;;;;;;12.13;5.57;;;;;;;-2.04;100.00;103516.22;5230942;28;20083;-64
2022/01/21 03:28:33;;;;;;;7.93;5.13;;;;;;;-2.06;100.00;103518.13;5231354;28;20050;-65
2022/01/21 03:31:04;;;;;;;6.63;4.78;;;;;;;-2.10;100.00;103524.59;5230585;28;20170;-64
2022/01/21 03:33:34;;;;;;;7.28;6.30;;;;;;;-2.07;100.00;103530.53;5230682;28;20439;-64
2022/01/21 03:36:06;;;;;;;9.60;5.65;;;;;;;-2.10;100.00;103525.44;5231851;28;20400;-64
2022/01/21 03:38:38;;;;;;;6.40;5.40;;;;;;;-2.06;100.00;103536.66;5231684;28;20039;-64
2022/01/21 03:41:09;;;;;;;6.55;5.43;;;;;;;-2.15;100.00;103516.13;5232215;28;20283;-65
2022/01/21 03:43:39;;;;;;;8.23;5.18;;;;;;;-2.16;100.00;103520.56;5249394;28;20040;-64
2022/01/21 03:46:10;;;;;;;12.77;4.80;;;;;;;-2.17;100.00;103525.97;5249685;28;20033;-65
2022/01/21 03:48:40;;;;;;;5.55;5.00;;;;;;;-2.21;100.00;103535.06;5231544;28;20040;-65
2022/01/21 03:51:11;;;;;;;12.13;4.95;;;;;;;-2.25;100.00;103531.78;5231755;28;20033;-67
2022/01/21 03:53:41;;;;;;;8.05;4.40;;;;;;;-2.24;100.00;103530.84;5231379;28;20032;-62
2022/01/21 03:56:13;;;;;;;19.17;7.65;;;;;;;-2.47;100.00;103491.91;5231886;28;20056;-65
2022/01/21 03:58:44;;;;;;;7.07;6.43;;;;;;;-2.20;100.00;103537.59;5231188;28;20041;-65
2022/01/21 04:01:14;;;;;;;9.93;5.55;;;;;;;-2.29;100.00;103543.53;5231370;28;20037;-65
2022/01/21 04:03:45;;;;;;;17.80;7.18;;;;;;;-2.29;100.00;103540.03;5231204;28;20028;-65
2022/01/21 04:06:15;;;;;;;5.03;4.82;;;;;;;-2.50;100.00;103522.06;5231522;28;20041;-65
2022/01/21 04:08:46;;;;;;;5.80;5.22;;;;;;;-2.39;100.00;103535.41;5231486;28;20036;-65
2022/01/21 04:11:16;;;;;;;6.82;5.93;;;;;;;-2.39;100.00;103546.00;5230810;28;20041;-63
2022/01/21 04:13:47;;;;;;;19.33;6.75;;;;;;;-2.42;100.00;103538.25;5230837;28;20038;-65
2022/01/21 04:16:17;;;;;;;12.07;4.80;;;;;;;-2.40;100.00;103544.28;5231271;28;20036;-65
2022/01/21 04:18:48;;;;;;;5.25;4.95;;;;;;;-2.47;100.00;103542.16;5231322;28;20472;-65
2022/01/21 04:21:19;;;;;;;4.75;4.35;;;;;;;-2.50;100.00;103539.72;5231269;28;20033;-64
2022/01/21 04:23:50;;;;;;;5.20;4.80;;;;;;;-2.62;100.00;103533.50;5231160;28;20039;-64
2022/01/21 04:26:20;;;;;;;8.13;4.55;;;;;;;-2.50;100.00;103545.00;5230798;28;20036;-64
2022/01/21 04:28:51;;;;;;;7.53;5.20;;;;;;;-2.54;100.00;103548.81;5230904;28;20039;-64
2022/01/21 04:31:21;;;;;;;5.55;5.22;;;;;;;-2.61;100.00;103542.28;5230848;28;20025;-64
2022/01/21 04:33:52;;;;;;;7.05;5.88;;;;;;;-2.65;100.00;103543.44;5230098;28;20036;-64
2022/01/21 04:36:22;;;;;;;12.13;6.05;;;;;;;-2.67;100.00;103540.03;5230620;28;20536;-63
2022/01/21 04:38:55;;;;;;;6.68;5.95;;;;;;;-2.73;100.00;103541.28;5230516;28;20032;-64
2022/01/21 04:47:39;;;;;;;5.40;4.88;;;;;;;-2.83;100.00;103538.41;5249056;28;20105;-64
2022/01/21 04:49:46;;;;;;;6.90;6.18;;;;;;;-2.86;100.00;103535.13;5230468;28;20040;-64
2022/01/21 04:52:16;;;;;;;10.02;6.00;;;;;;;-2.73;100.00;103536.84;5230364;28;20032;-64
2022/01/21 04:54:47;;;;;;;9.50;6.60;;;;;;;-2.58;100.00;103524.38;5229868;28;20507;-63
2022/01/21 04:57:18;;;;;;;16.95;5.97;;;;;;;-2.26;100.00;103534.53;5230545;28;20056;-63
2022/01/21 04:59:49;;;;;;;8.85;5.97;;;;;;;-2.16;100.00;103517.06;5229998;28;20040;-61
2022/01/21 05:02:19;;;;;;;8.75;7.72;;;;;;;-1.96;100.00;103532.38;5229844;28;20536;-64
2022/01/21 05:04:50;;;;;;;6.70;6.03;;;;;;;-1.80;100.00;103540.09;5229450;28;20051;-64
2022/01/21 05:07:24;;;;;;;10.82;5.53;;;;;;;-1.67;100.00;103537.41;5247798;28;20036;-63
2022/01/21 05:09:54;;;;;;;16.30;6.57;;;;;;;-1.56;100.00;103534.84;5230074;28;20032;-64
2022/01/21 05:12:28;;;;;;;6.22;5.70;;;;;;;-1.41;100.00;103541.66;5229948;28;20413;-64
2022/01/21 05:17:29;;;;;;;12.88;7.43;;;;;;;-1.26;100.00;103534.41;5247430;28;20028;-64
2022/01/21 05:20:00;;;;;;;5.70;5.30;;;;;;;-1.06;100.00;103539.09;5230274;28;20032;-62
2022/01/21 05:22:30;;;;;;;11.63;6.47;;;;;;;-1.04;100.00;103532.69;5229818;28;20036;-63
2022/01/21 05:25:01;;;;;;;6.18;5.72;;;;;;;-0.95;100.00;103539.13;5229948;28;20033;-64
2022/01/21 05:27:31;;;;;;;11.52;5.93;;;;;;;-1.04;100.00;103529.22;5230437;28;20124;-64
2022/01/21 05:30:03;;;;;;;5.13;4.65;;;;;;;-1.04;100.00;103532.69;5229286;28;20405;-65
2022/01/21 05:32:33;;;;;;;7.20;6.50;;;;;;;-1.15;100.00;103537.09;5247463;28;20032;-64
2022/01/21 05:35:05;;;;;;;12.93;6.78;;;;;;;-1.18;100.00;103532.91;5229484;28;20059;-64
2022/01/21 05:37:36;;;;;;;11.80;7.25;;;;;;;-1.20;100.00;103531.31;5229508;28;20451;-64
2022/01/21 05:40:13;;;;;;;8.77;6.35;;;;;;;-1.26;100.00;103539.72;5214209;28;20087;-65
2022/01/21 05:42:44;;;;;;;8.60;7.95;;;;;;;-1.45;100.00;103516.38;5208456;28;20095;-64
2022/01/21 05:48:04;;;;;;;20.13;12.37;;;;;;;-1.29;100.00;103539.94;5226640;28;20079;-63
2022/01/21 05:50:34;;;;;;;12.18;10.90;;;;;;;-1.32;100.00;103532.22;5208782;28;20064;-64
2022/01/21 05:53:09;;;;;;;24.88;12.23;;;;;;;-1.40;100.00;103525.66;5208209;28;20033;-64
2022/01/21 05:55:42;;;;;;;13.48;12.13;;;;;;;-1.34;100.00;103534.13;5228689;28;20044;-64
2022/01/21 05:58:13;;;;;;;14.60;11.32;;;;;;;-1.38;100.00;103530.84;5233555;28;20028;-63
2022/01/21 06:00:46;;;;;;;11.98;11.10;;;;;;;-1.50;100.00;103518.50;5203018;28;20028;-64
2022/01/21 06:03:17;;;;;;;9.23;8.43;;;;;;;-1.45;100.00;103535.78;5191914;28;20130;-64
2022/01/21 06:05:47;;;;;;;11.20;9.40;;;;;;;-1.62;100.00;103509.63;5191282;28;20446;-64
2022/01/21 06:08:18;;;;;;;19.58;11.05;;;;;;;-1.55;100.00;103524.13;5191963;28;20048;-64
2022/01/21 06:10:49;;;;;;;15.43;10.50;;;;;;;-1.58;100.00;103531.47;5192172;28;20383;-64
2022/01/21 06:13:20;;;;;;;16.23;11.25;;;;;;;-1.40;100.00;103538.06;5191896;28;20033;-64
2022/01/21 06:15:50;;;;;;;13.68;9.70;;;;;;;-1.63;100.00;103496.50;5191800;28;20037;-64
2022/01/21 06:18:21;;;;;;;16.90;11.30;;;;;;;-1.53;100.00;103524.88;5191802;28;20045;-64
2022/01/21 06:20:52;;;;;;;21.73;12.93;;;;;;;-1.58;100.00;103531.47;5191904;28;20036;-63
2022/01/21 06:23:22;;;;;;;14.68;13.18;;;;;;;-1.64;100.00;103532.75;5191281;28;20041;-64
2022/01/21 06:25:53;;;;;;;13.85;12.48;;;;;;;-1.70;100.00;103533.19;5190970;28;20128;-64
2022/01/21 06:28:24;;;;;;;24.98;11.20;;;;;;;-1.82;100.00;103534.91;5190514;28;20095;-63
2022/01/21 06:30:55;;;;;;;11.68;9.73;;;;;;;-1.96;100.00;103536.84;5191325;28;20382;-64
2022/01/21 06:33:26;;;;;;;18.15;10.77;;;;;;;-2.05;100.00;103536.56;5191749;28;20037;-64
2022/01/21 06:35:57;;;;;;;14.25;12.48;;;;;;;-1.99;100.00;103545.84;5191663;28;20079;-63
2022/01/21 06:38:28;;;;;;;15.38;12.98;;;;;;;-2.06;100.00;103553.41;5190551;28;20104;-64
2022/01/21 06:40:58;;;;;;;18.33;11.98;;;;;;;-2.23;100.00;103536.97;5190436;28;20025;-65
2022/01/21 06:43:29;;;;;;;11.27;10.43;;;;;;;-2.10;100.00;103557.19;5207722;28;20035;-62
2022/01/21 06:45:59;;;;;;;13.75;11.82;;;;;;;-2.06;100.00;103558.69;5189250;28;20065;-64
2022/01/21 06:48:30;;;;;;;12.00;10.65;;;;;;;-2.01;100.00;103557.50;5190881;28;20033;-64
2022/01/21 06:51:01;;;;;;;11.02;9.45;;;;;;;-2.15;100.00;103559.31;5191008;28;20036;-64
2022/01/21 06:53:31;;;;;;;12.32;11.27;;;;;;;-2.36;100.00;103544.94;5190920;28;20083;-62
2022/01/21 06:56:02;;;;;;;12.05;10.95;;;;;;;-2.42;100.00;103548.84;5191353;28;20029;-64
2022/01/21 06:58:32;;;;;;;12.38;9.50;;;;;;;-2.41;100.00;103584.09;5190941;28;20033;-64
2022/01/21 07:01:03;;;;;;;14.38;12.55;;;;;;;-2.41;100.00;103586.72;5191091;28;20036;-64
2022/01/21 07:03:33;;;;;;;17.17;12.25;;;;;;;-2.48;100.00;103593.38;5190903;28;20061;-64
2022/01/21 07:06:04;;;;;;;13.60;12.45;;;;;;;-2.49;100.00;103591.69;5190860;28;20084;-64
2022/01/21 07:08:34;;;;;;;14.25;12.80;;;;;;;-2.43;100.00;103599.22;5191300;28;20095;-64
2022/01/21 07:11:05;;;;;;;20.52;14.10;;;;;;;-2.47;100.00;103598.56;5190507;28;20052;-64
2022/01/21 07:13:36;;;;;;;19.42;13.82;;;;;;;-2.51;100.00;103610.31;5190312;28;20211;-64
2022/01/21 07:16:07;;;;;;;15.82;14.18;;;;;;;-2.73;100.00;103587.09;5190435;28;20579;-64
2022/01/21 07:18:37;;;;;;;23.15;13.32;;;;;;;-2.68;100.00;103607.09;5190136;28;20494;-63
2022/01/21 07:21:08;;;;;;;15.13;13.52;;;;;;;-2.75;100.00;103607.50;5190105;28;20025;-64
2022/01/21 07:23:38;;;;;;;14.15;11.98;;;;;;;-2.75;100.00;103607.50;5189839;28;20042;-64
2022/01/21 07:26:09;;;;;;;14.20;12.90;;;;;;;-2.75;100.00;103596.94;5190017;28;20497;-64
2022/01/21 07:28:40;;;;;;;19.20;13.57;;;;;;;-2.72;100.00;103603.81;5189843;28;20124;-63
2022/01/21 07:31:11;;;;;;;15.20;13.68;;;;;;;-2.61;100.00;103618.97;5189592;28;20037;-64
2022/01/21 07:33:41;;;;;;;23.23;15.23;;;;;;;-2.51;100.00;103605.00;5189617;28;20508;-64
2022/01/21 07:36:12;;;;;;;18.88;16.25;;;;;;;-2.65;100.00;103585.75;5189978;28;20489;-63
2022/01/21 07:38:42;;;;;;;22.70;15.48;;;;;;;-2.48;100.00;103609.25;5189837;28;20037;-64
2022/01/21 07:41:13;;;;;;;25.42;17.63;;;;;;;-2.53;100.00;103606.06;5207828;28;20033;-64
2022/01/21 07:43:43;;;;;;;15.88;12.88;;;;;;;-2.49;100.00;103618.13;5189749;28;20037;-64
2022/01/21 07:46:15;;;;;;;21.60;15.85;;;;;;;-2.44;100.00;103622.19;5189832;28;20029;-64
2022/01/21 07:48:46;;;;;;;19.67;17.40;;;;;;;-2.52;100.00;103592.75;5189687;28;20095;-64
2022/01/21 07:51:16;;;;;;;24.63;19.65;;;;;;;-2.18;100.00;103614.25;5189510;28;20041;-64
2022/01/21 07:53:47;;;;;;;29.80;26.65;;;;;;;-2.12;100.00;103620.00;5189317;28;20045;-63
2022/01/21 07:56:17;;;;;;;22.38;19.17;;;;;;;-2.11;100.00;103621.69;5189333;28;20061;-64
2022/01/21 07:58:48;;;;;;;24.25;20.20;;;;;;;-2.22;100.00;103618.06;5189319;28;20037;-64
2022/01/21 08:01:19;;;;;;;26.50;20.60;;;;;;;-2.20;100.00;103638.19;5189307;28;20455;-64
2022/01/21 08:03:49;;;;;;;21.88;18.08;;;;;;;-2.41;100.00;103584.94;5188823;28;20516;-64
2022/01/21 08:06:20;;;;;;;23.58;17.02;;;;;;;-2.28;100.00;103616.69;5189257;28;20399;-64
2022/01/21 08:08:50;;;;;;;19.48;17.83;;;;;;;-2.33;100.00;103618.81;5189002;28;20127;-64
2022/01/21 08:11:22;;;;;;;21.80;16.58;;;;;;;-2.15;100.00;103637.88;5188908;28;20030;-64
2022/01/21 08:13:52;;;;;;;20.63;15.52;;;;;;;-1.87;100.00;103645.63;5188848;28;20041;-64
2022/01/21 08:16:23;;;;;;;17.70;15.85;;;;;;;-1.68;100.00;103637.22;5189225;28;20074;-64
2022/01/21 08:18:54;;;;;;;19.67;16.52;;;;;;;-1.57;100.00;103629.38;5188486;28;20037;-64
2022/01/21 08:21:24;;;;;;;18.80;16.05;;;;;;;-1.50;100.00;103641.25;5188731;28;20026;-64
2022/01/21 08:23:56;;;;;;;15.65;14.45;;;;;;;-1.71;100.00;103608.31;5188441;28;20041;-64
2022/01/21 08:26:28;;;;;;;22.45;15.77;;;;;;;-1.68;100.00;103626.63;5230697;23;20045;-59
2022/01/21 08:28:58;;;;;;;17.48;15.63;;;;;;;-1.75;100.00;103625.41;5225509;28;20040;-59
2022/01/21 08:31:29;;;;;;;16.42;14.13;;;;;;;-1.80;100.00;103628.38;5227134;28;20369;-61
2022/01/21 08:33:59;;;;;;;17.58;14.57;;;;;;;-1.87;100.00;103619.16;5225277;28;20044;-57
2022/01/21 08:36:30;;;;;;;15.18;14.05;;;;;;;-1.86;100.00;103625.28;5225589;28;20492;-59
2022/01/21 08:39:00;;;;;;;15.90;13.13;;;;;;;-1.78;100.00;103628.25;5225591;28;20128;-59
2022/01/21 08:41:31;;;;;;;27.17;13.80;;;;;;;-1.71;100.00;103622.41;5225824;28;20033;-60
2022/01/21 08:44:02;;;;;;;18.17;16.58;;;;;;;-1.64;100.00;103617.53;5225916;28;20093;-59
2022/01/21 08:46:32;;;;;;;18.02;15.85;;;;;;;-1.58;100.00;103614.44;5226205;28;20132;-59
2022/01/21 08:49:07;;;;;;;15.85;14.60;;;;;;;-1.49;100.00;103620.91;5225448;28;20128;-60
2022/01/21 08:51:51;;;;;;;18.25;16.50;;;;;;;-1.43;100.00;103609.84;5225386;28;20120;-60
2022/01/21 08:54:22;;;;;;;17.30;15.70;;;;;;;-1.37;100.00;103602.31;5225137;28;20408;-58
2022/01/21 08:56:54;;;;;;;17.63;16.08;;;;;;;-1.30;100.00;103620.41;5225467;28;20029;-60
2022/01/21 08:59:26;;;;;;;18.08;16.63;;;;;;;-1.24;100.00;103612.88;5225479;28;20041;-60
2022/01/21 09:01:57;;;;;;;16.20;14.85;;;;;;;-1.25;100.00;103595.28;5225143;28;20116;-60
2022/01/21 09:04:27;;;;;;;19.33;17.55;;;;;;;-1.10;100.00;103612.72;5224997;28;20115;-58
2022/01/21 09:06:58;;;;;;;21.95;18.20;;;;;;;-1.04;100.00;103616.72;5225135;28;20037;-59
2022/01/21 09:09:29;;;;;;;17.52;15.88;;;;;;;-0.99;100.00;103614.59;5224971;28;20432;-60
2022/01/21 09:12:02;;;;;;;18.50;16.48;;;;;;;-0.91;100.00;103627.28;5224585;28;20116;-58
2022/01/21 09:14:33;;;;;;;18.48;16.17;;;;;;;-0.82;100.00;103622.13;5224554;28;20036;-60
2022/01/21 09:17:04;;;;;;;16.10;14.70;;;;;;;-0.75;100.00;103628.69;5225813;28;20059;-58
2022/01/21 09:19:34;;;;;;;15.00;13.57;;;;;;;-0.66;100.00;103629.81;5226257;28;20033;-60
2022/01/21 09:22:05;;;;;;;20.05;14.80;;;;;;;-0.56;100.00;103628.16;5224609;28;20538;-60
2022/01/21 09:24:36;;;;;;;16.85;15.32;;;;;;;-0.48;100.00;103624.91;5225973;28;20516;-61
2022/01/21 09:27:07;;;;;;;18.30;14.25;;;;;;;-0.41;100.00;103637.63;5226089;28;20070;-62
2022/01/21 09:29:37;;;;;;;23.15;15.13;;;;;;;-0.30;100.00;103633.31;5224469;28;20037;-58
2022/01/21 09:32:08;;;;;;;15.23;14.05;;;;;;;-0.17;100.00;103642.88;5224347;28;20118;-61
2022/01/21 09:34:39;;;;;;;12.82;12.00;;;;;;;-0.05;100.00;103627.81;5224417;28;20484;-60
2022/01/21 09:37:09;;;;;;;18.75;15.02;;;;;;;0.03;100.00;103636.00;5224444;28;20052;-57
2022/01/21 09:39:39;;;;;;;14.75;13.65;;;;;;;0.07;100.00;103618.03;5224375;28;20024;-56
2022/01/21 09:42:14;;;;;;;15.80;12.63;;;;;;;0.12;100.00;103624.69;5224238;28;20551;-58
2022/01/21 09:44:45;;;;;;;16.13;12.07;;;;;;;0.19;100.00;103625.91;5224064;28;20037;-56
2022/01/21 09:47:18;;;;;;;13.27;11.98;;;;;;;0.27;100.00;103620.84;5224017;28;20036;-56
2022/01/21 09:49:49;;;;;;;13.43;12.07;;;;;;;0.35;100.00;103609.59;5225495;28;20036;-59
2022/01/21 09:52:22;;;;;;;15.55;14.07;;;;;;;0.52;100.00;103626.88;5222955;28;20041;-58
2022/01/21 09:54:53;;;;;;;14.75;12.00;;;;;;;0.62;100.00;103626.00;5224118;28;20037;-56
2022/01/21 09:57:23;;;;;;;12.57;10.93;;;;;;;0.75;100.00;103627.69;5224953;28;20304;-55
2022/01/21 09:59:55;;;;;;;14.68;13.00;;;;;;;0.89;100.00;103630.91;5224547;28;20037;-58
2022/01/21 10:02:28;;;;;;;16.88;14.75;;;;;;;1.02;100.00;103628.94;5224505;28;20369;-55
2022/01/21 10:04:59;;;;;;;12.00;11.27;;;;;;;1.13;100.00;103622.75;5224668;28;20102;-58
2022/01/21 10:07:30;;;;;;;17.65;13.70;;;;;;;1.47;100.00;103646.56;5224752;28;20037;-56
2022/01/21 10:10:07;;;;;;;17.73;14.73;;;;;;;1.68;100.00;103642.13;5224435;28;20103;-56
2022/01/21 10:12:39;;;;;;;20.10;12.63;;;;;;;1.91;100.00;103651.66;5224137;28;20405;-57
2022/01/21 10:15:11;;;;;;;11.95;11.00;;;;;;;2.17;100.00;103653.91;5224189;28;20029;-58
2022/01/21 10:18:22;;;;;;;26.85;12.60;;;;;;;2.33;100.00;103652.44;5224262;28;20103;-58
2022/01/21 10:21:06;;;;;;;13.40;12.15;;;;;;;2.58;100.00;103653.00;5224926;28;20025;-56
2022/01/21 10:23:42;;;;;;;13.38;10.95;;;;;;;2.74;100.00;103647.97;5224629;28;20052;-56
2022/01/21 10:26:16;;;;;;;10.68;9.05;;;;;;;2.97;100.00;103640.56;5224685;28;20079;-56
2022/01/21 10:28:55;;;;;;;24.20;12.77;;;;;;;3.20;100.00;103654.50;5224499;28;20516;-56
2022/01/21 10:31:27;;;;;;;18.45;9.98;;;;;;;3.25;100.00;103655.78;5224625;28;20033;-59
2022/01/21 10:34:04;;;;;;;14.32;11.90;;;;;;;3.26;100.00;103664.66;5225221;28;20036;-60
2022/01/21 10:36:44;;;;;;;24.63;11.55;;;;;;;3.35;100.00;103666.50;5225139;28;20037;-55
2022/01/21 10:39:28;;;;;;;18.50;10.45;;;;;;;3.43;100.00;103668.47;5224285;28;20043;-57
2022/01/21 10:42:00;;;;;;;32.92;17.75;;;;;;;3.49;100.00;103662.53;5226633;28;20032;-59
2022/01/21 10:44:31;;;;;;;15.85;14.00;;;;;;;3.51;100.00;103660.56;5228222;28;20033;-57
2022/01/21 10:47:03;;;;;;;44.60;18.23;;;;;;;3.57;100.00;103663.53;5228346;28;20492;-56
2022/01/21 10:49:39;;;;;;;14.60;12.00;;;;;;;3.68;100.00;103674.09;5227672;28;20489;-56
2022/01/21 10:52:11;;;;;;;35.03;14.88;;;;;;;3.80;100.00;103666.75;5227884;28;20037;-57
2022/01/21 10:54:44;;;;;;;10.32;8.90;;;;;;;3.97;100.00;103662.53;5227648;28;20040;-56
2022/01/21 10:57:19;;;;;;;19.63;9.27;;;;;;;4.03;100.00;103652.09;5227828;28;20029;-57
2022/01/21 11:00:07;;;;;;;24.85;8.98;;;;;;;4.16;100.00;103650.91;5229367;28;20501;-56
2022/01/21 11:02:43;;;;;;;16.70;9.73;;;;;;;4.25;100.00;103644.72;5227619;28;20029;-58
2022/01/21 11:05:31;;;;;;;9.07;8.38;;;;;;;4.23;100.00;103652.03;5227546;28;20041;-55
2022/01/21 11:08:11;;;;;;;9.90;9.05;;;;;;;4.26;100.00;103647.25;5227711;28;20398;-59
2022/01/21 11:10:46;;;;;;;13.25;8.20;;;;;;;4.35;100.00;103645.50;5227290;28;20127;-54
2022/01/21 11:13:18;;;;;;;13.13;8.57;;;;;;;4.41;100.00;103640.41;5227385;28;20033;-56
2022/01/21 11:15:49;;;;;;;14.40;7.70;;;;;;;4.46;100.00;103645.31;5227075;28;20041;-57
2022/01/21 11:18:21;;;;;;;15.48;8.55;;;;;;;4.48;100.00;103635.31;5227060;28;20047;-57
2022/01/21 11:20:59;;;;;;;9.07;8.10;;;;;;;4.49;100.00;103628.97;5227008;28;20033;-55
2022/01/21 11:23:30;;;;;;;23.80;8.23;;;;;;;4.62;100.00;103626.78;5226826;28;20036;-57
2022/01/21 11:26:09;;;;;;;15.77;8.95;;;;;;;4.73;100.00;103623.06;5227061;28;20378;-56
2022/01/21 11:28:50;;;;;;;20.88;8.27;;;;;;;4.78;100.00;103615.44;5227357;28;20090;-57
2022/01/21 11:31:26;;;;;;;14.13;9.43;;;;;;;4.96;100.00;103610.94;5227073;28;20040;-54
2022/01/21 11:33:57;;;;;;;8.93;7.88;;;;;;;5.23;100.00;103602.00;5226927;28;20047;-57
2022/01/21 11:36:27;;;;;;;18.25;8.85;;;;;;;5.39;100.00;103602.16;5228393;28;20033;-57
2022/01/21 11:38:58;;;;;;;8.75;7.47;;;;;;;5.46;100.00;103588.13;5226677;28;20075;-55
2022/01/21 11:41:30;;;;;;;10.02;9.07;;;;;;;5.78;100.00;103599.06;5226757;28;20087;-57
2022/01/21 11:44:03;;;;;;;13.25;8.93;;;;;;;6.09;100.00;103586.91;5226516;28;20104;-54
2022/01/21 11:49:11;;;;;;;8.52;6.75;;;;;;;6.36;100.00;103559.00;5228102;28;20096;-57
2022/01/21 11:51:41;;;;;;;12.20;6.03;;;;;;;6.47;100.00;103549.84;5226583;28;20041;-56
2022/01/21 11:54:17;;;;;;;7.82;5.38;;;;;;;6.49;100.00;103563.09;5225348;28;20504;-56
2022/01/21 11:57:00;;;;;;;15.85;5.63;;;;;;;6.42;100.00;103560.22;5226839;28;20051;-56
2022/01/21 11:59:33;;;;;;;10.35;5.22;;;;;;;6.30;100.00;103565.06;5226496;28;20033;-59
2022/01/21 12:02:13;;;;;;;9.45;5.32;;;;;;;6.29;100.00;103570.56;5226592;28;20039;-57
2022/01/21 12:04:53;;;;;;;6.78;4.93;;;;;;;6.18;100.00;103546.69;5226225;28;20041;-56
2022/01/21 12:07:33;;;;;;;7.25;4.90;;;;;;;6.22;100.00;103572.22;5226418;28;20033;-58
2022/01/21 12:10:08;;;;;;;4.68;4.30;;;;;;;6.09;100.00;103564.59;5225964;28;20036;-55
2022/01/21 12:12:44;;;;;;;8.13;3.38;;;;;;;6.06;100.00;103568.44;5227556;28;20041;-55
2022/01/21 12:15:23;;;;;;;12.30;5.63;;;;;;;5.98;100.00;103571.09;5226208;28;20036;-58
2022/01/21 12:18:10;;;;;;;2.97;2.72;;;;;;;5.96;100.00;103570.41;5226692;28;20127;-55
2022/01/21 12:20:41;;;;;;;3.92;3.70;;;;;;;5.99;100.00;103572.78;5226459;28;20039;-56